Observation data for Amherst on 05/26/2019      Previous  Date  Next       Current Mesonet Observations  Soil Data  Daily Summary Page  Observations in Plain Language
KAMH 260500Z 17010KT 20/17 A2997 RMK A01 T01950173  RH  092%=      5-min Rain = 0
KAMH 260505Z 17009KT 20/17 A2997 RMK A01 T01950173  RH  092%=      5-min Rain = 0
KAMH 260510Z 17009KT 19/17 A2997 RMK A01 T01940173  RH  092%=      5-min Rain = 0
KAMH 260515Z 17009KT 19/17 A2998 RMK A01 T01940172  RH  092%=      5-min Rain = 0
KAMH 260520Z 17009KT 19/17 A2998 RMK A01 T01940172  RH  092%=      5-min Rain = 0
KAMH 260525Z 17009KT 19/17 A2997 RMK A01 T01940172  RH  091%=      5-min Rain = 0
KAMH 260530Z 17009KT 19/17 A2997 RMK A01 T01930171  RH  091%=      5-min Rain = 0
KAMH 260535Z 17009KT 19/17 A2998 RMK A01 T01920170  RH  092%=      5-min Rain = 0
KAMH 260540Z 17008KT 19/17 A2998 RMK A01 T01910169  RH  092%=      5-min Rain = 0
KAMH 260545Z 17008KT 19/17 A2998 RMK A01 T01900169  RH  092%=      5-min Rain = 0
KAMH 260550Z 16008KT 19/17 A2998 RMK A01 T01890168  RH  092%=      5-min Rain = 0
KAMH 260555Z 16007KT 19/17 A2998 RMK A01 T01880168  RH  092%=      5-min Rain = 0
KAMH 260600Z 16007KT 19/17 A2998 RMK A01 T01870167  RH  092%=      5-min Rain = 0
KAMH 260605Z 16007KT 19/17 A2998 RMK A01 T01870167  RH  092%=      5-min Rain = 0
KAMH 260610Z 16007KT 19/17 A2998 RMK A01 T01860166  RH  093%=      5-min Rain = 0
KAMH 260615Z 16007KT 19/17 A2998 RMK A01 T01850165  RH  093%=      5-min Rain = 0
KAMH 260620Z 16007KT 18/17 A2998 RMK A01 T01840165  RH  093%=      5-min Rain = 0
KAMH 260625Z 17007KT 18/17 A2998 RMK A01 T01840165  RH  093%=      5-min Rain = 0
KAMH 260630Z 17007KT 18/17 A2998 RMK A01 T01840165  RH  093%=      5-min Rain = 0
KAMH 260635Z 17008KT 18/17 A2998 RMK A01 T01840165  RH  093%=      5-min Rain = 0
KAMH 260640Z 17008KT 18/16 A2998 RMK A01 T01840164  RH  092%=      5-min Rain = 0
KAMH 260645Z 17009KT 19/16 A2998 RMK A01 T01850164  RH  092%=      5-min Rain = 0
KAMH 260650Z 17009KT 19/16 A2998 RMK A01 T01870164  RH  091%=      5-min Rain = 0
KAMH 260655Z 17009KT 18/16 A2998 RMK A01 T01840162  RH  091%=      5-min Rain = 0
KAMH 260700Z 17009KT 18/16 A2997 RMK A01 T01840162  RH  091%=      5-min Rain = 0
KAMH 260705Z 18009KT 18/16 A2997 RMK A01 T01840162  RH  091%=      5-min Rain = 0
KAMH 260710Z 18009KT 18/16 A2998 RMK A01 T01840162  RH  091%=      5-min Rain = 0
KAMH 260715Z 18009KT 18/16 A2997 RMK A01 T01840161  RH  091%=      5-min Rain = 0
KAMH 260720Z 18008KT 18/16 A2997 RMK A01 T01830160  RH  091%=      5-min Rain = 0
KAMH 260725Z 18008KT 18/16 A2997 RMK A01 T01810160  RH  092%=      5-min Rain = 0
KAMH 260730Z 18007KT 18/16 A2997 RMK A01 T01800159  RH  092%=      5-min Rain = 0
KAMH 260735Z 18007KT 18/16 A2997 RMK A01 T01780158  RH  092%=      5-min Rain = 0
KAMH 260740Z 18007KT 18/16 A2997 RMK A01 T01780158  RH  092%=      5-min Rain = 0
KAMH 260745Z 18006KT 18/16 A2997 RMK A01 T01770158  RH  093%=      5-min Rain = 0
KAMH 260750Z 17006KT 18/16 A2997 RMK A01 T01770158  RH  093%=      5-min Rain = 0
KAMH 260755Z 17006KT 18/16 A2997 RMK A01 T01760157  RH  093%=      5-min Rain = 0
KAMH 260800Z 16006KT 17/16 A2997 RMK A01 T01740155  RH  093%=      5-min Rain = 0
KAMH 260805Z 16006KT 17/15 A2997 RMK A01 T01710153  RH  093%=      5-min Rain = 0
KAMH 260810Z 16006KT 17/15 A2997 RMK A01 T01690152  RH  094%=      5-min Rain = 0
KAMH 260815Z 16006KT 17/15 A2997 RMK A01 T01690153  RH  094%=      5-min Rain = 0
KAMH 260820Z 16006KT 17/15 A2997 RMK A01 T01690153  RH  095%=      5-min Rain = 0
KAMH 260825Z 16006KT 17/15 A2997 RMK A01 T01690154  RH  095%=      5-min Rain = 0
KAMH 260830Z 16007KT 17/15 A2997 RMK A01 T01700154  RH  095%=      5-min Rain = 0
KAMH 260835Z 16007KT 17/16 A2997 RMK A01 T01710155  RH  095%=      5-min Rain = 0
KAMH 260840Z 15007KT 17/15 A2997 RMK A01 T01710154  RH  094%=      5-min Rain = 0
KAMH 260845Z 15007KT 17/15 A2997 RMK A01 T01700154  RH  094%=      5-min Rain = 0
KAMH 260850Z 15007KT 17/15 A2998 RMK A01 T01690153  RH  094%=      5-min Rain = 0
KAMH 260855Z 15006KT 17/15 A2998 RMK A01 T01670151  RH  095%=      5-min Rain = 0
KAMH 260900Z 14005KT 17/15 A2997 RMK A01 T01670152  RH  095%=      5-min Rain = 0
KAMH 260905Z 15006KT 17/15 A2997 RMK A01 T01670152  RH  095%=      5-min Rain = 0
KAMH 260910Z 15005KT 17/15 A2998 RMK A01 T01660152  RH  095%=      5-min Rain = 0
KAMH 260915Z 15005KT 17/15 A2998 RMK A01 T01650151  RH  096%=      5-min Rain = 0
KAMH 260920Z 15005KT 16/15 A2998 RMK A01 T01640150  RH  096%=      5-min Rain = 0
KAMH 260925Z 15005KT 16/15 A2998 RMK A01 T01620149  RH  096%=      5-min Rain = 0
KAMH 260930Z 14005KT 16/15 A2998 RMK A01 T01620149  RH  096%=      5-min Rain = 0
KAMH 260935Z 13005KT 16/15 A2998 RMK A01 T01620150  RH  097%=      5-min Rain = 0
KAMH 260940Z 14006KT 16/15 A2998 RMK A01 T01630151  RH  097%=      5-min Rain = 0
KAMH 260945Z 13006KT 16/15 A2998 RMK A01 T01630152  RH  097%=      5-min Rain = 0
KAMH 260950Z 13006KT 16/15 A2998 RMK A01 T01620151  RH  097%=      5-min Rain = 0
KAMH 260955Z 13006KT 16/15 A2998 RMK A01 T01620151  RH  097%=      5-min Rain = 0
KAMH 261000Z 13006KT 16/15 A2998 RMK A01 T01620151  RH  097%=      5-min Rain = 0
KAMH 261005Z 13005KT 16/15 A2998 RMK A01 T01630152  RH  098%=      5-min Rain = 0
KAMH 261010Z 13006KT 16/15 A2998 RMK A01 T01630153  RH  098%=      5-min Rain = 0
KAMH 261015Z 13007KT 17/15 A2998 RMK A01 T01650154  RH  098%=      5-min Rain = 0
KAMH 261020Z 13008KT 17/16 A2998 RMK A01 T01670156  RH  098%=      5-min Rain = 0
KAMH 261025Z 13008KT 17/16 A2998 RMK A01 T01680157  RH  098%=      5-min Rain = 0
KAMH 261030Z 13007KT 17/16 A2998 RMK A01 T01680158  RH  098%=      5-min Rain = 0
KAMH 261035Z 13006KT 17/16 A2998 RMK A01 T01690158  RH  098%=      5-min Rain = 0
KAMH 261040Z 13006KT 17/16 A2998 RMK A01 T01690159  RH  098%=      5-min Rain = 0
KAMH 261045Z 12005KT 17/16 A2998 RMK A01 T01700158  RH  098%=      5-min Rain = 0
KAMH 261050Z 12006KT 17/16 A2998 RMK A01 T01700159  RH  098%=      5-min Rain = 0
KAMH 261055Z 12005KT 17/16 A2998 RMK A01 T01710160  RH  098%=      5-min Rain = 0
KAMH 261100Z 12005KT 17/16 A2998 RMK A01 T01710160  RH  098%=      5-min Rain = 0
KAMH 261105Z 12005KT 17/16 A2998 RMK A01 T01710160  RH  098%=      5-min Rain = 0
KAMH 261110Z 12006KT 17/16 A2998 RMK A01 T01720160  RH  098%=      5-min Rain = 0
KAMH 261115Z 12006KT 17/16 A2998 RMK A01 T01730162  RH  098%=      5-min Rain = 0
KAMH 261120Z 12006KT 17/16 A2998 RMK A01 T01740162  RH  098%=      5-min Rain = 0
KAMH 261125Z 13007KT 17/16 A2999 RMK A01 T01740163  RH  098%=      5-min Rain = 0
KAMH 261130Z 12007KT 18/16 A2999 RMK A01 T01750163  RH  097%=      5-min Rain = 0
KAMH 261135Z 12008KT 18/16 A2999 RMK A01 T01750163  RH  097%=      5-min Rain = 0
KAMH 261140Z 12009KT 18/16 A2999 RMK A01 T01760164  RH  097%=      5-min Rain = 0
KAMH 261145Z 12009KT 18/17 A2999 RMK A01 T01770165  RH  097%=      5-min Rain = 0
KAMH 261150Z 13008KT 18/17 A2999 RMK A01 T01770165  RH  097%=      5-min Rain = 0
KAMH 261155Z 13009KT 18/17 A2999 RMK A01 T01780166  RH  097%=      5-min Rain = 0
KAMH 261200Z 13009KT 18/17 A2999 RMK A01 T01790166  RH  097%=      5-min Rain = 0
KAMH 261205Z 13010KT 18/17 A2999 RMK A01 T01800167  RH  097%=      5-min Rain = 0
KAMH 261210Z 13010KT 18/17 A2999 RMK A01 T01810168  RH  097%=      5-min Rain = 0
KAMH 261215Z 14010KT 18/17 A2999 RMK A01 T01820169  RH  097%=      5-min Rain = 0
KAMH 261220Z 14010KT 18/17 A2999 RMK A01 T01820169  RH  097%=      5-min Rain = 0
KAMH 261225Z 13009KT 18/17 A2999 RMK A01 T01830170  RH  097%=      5-min Rain = 0
KAMH 261230Z 14009KT 18/17 A2999 RMK A01 T01840171  RH  097%=      5-min Rain = 0
KAMH 261235Z 14008KT 19/17 A2999 RMK A01 T01850172  RH  097%=      5-min Rain = 0
KAMH 261240Z 14008KT 19/17 A2999 RMK A01 T01860173  RH  097%=      5-min Rain = 0
KAMH 261245Z 14008KT 19/17 A30 RMK A01 T01870174  RH  097%=      5-min Rain = 0
KAMH 261250Z 14009KT 19/17 A30 RMK A01 T01880174  RH  097%=      5-min Rain = 0
KAMH 261255Z 14009KT 19/18 A30 RMK A01 T01890175  RH  097%=      5-min Rain = 0
KAMH 261300Z 14010KT 19/18 A30 RMK A01 T01900175  RH  096%=      5-min Rain = 0
KAMH 261305Z 14010KT 19/18 A30 RMK A01 T01910176  RH  096%=      5-min Rain = 0
KAMH 261310Z 14010KT 19/18 A30 RMK A01 T01910176  RH  096%=      5-min Rain = 0
KAMH 261315Z 14011G16KT 19/18 A30 RMK A01 T01920176  RH  096%=      5-min Rain = 0
KAMH 261320Z 14011KT 19/18 A30 RMK A01 T01920177  RH  095%=      5-min Rain = 0
KAMH 261325Z 14010KT 19/18 A30 RMK A01 T01930177  RH  095%=      5-min Rain = 0
KAMH 261330Z 14010G15KT 19/18 A30 RMK A01 T01930177  RH  095%=      5-min Rain = 0
KAMH 261335Z 15010KT 19/18 A30 RMK A01 T01940178  RH  095%=      5-min Rain = 0
KAMH 261340Z 15011KT 19/18 A30 RMK A01 T01940178  RH  095%=      5-min Rain = 0
KAMH 261345Z 15010KT 19/18 A3001 RMK A01 T01940178  RH  095%=      5-min Rain = 0
KAMH 261350Z 15010KT 20/18 A3001 RMK A01 T01950179  RH  095%=      5-min Rain = 0
KAMH 261355Z 14011KT 20/18 A3001 RMK A01 T01950178  RH  095%=      5-min Rain = 0
KAMH 261400Z 14011KT 20/18 A3001 RMK A01 T01950178  RH  095%=      5-min Rain = 0
KAMH 261405Z 15011KT 20/18 A3001 RMK A01 T01950178  RH  095%=      5-min Rain = 0
KAMH 261410Z 15011KT 20/18 A3001 RMK A01 T01950178  RH  095%=      5-min Rain = 0
KAMH 261415Z 14011KT 20/18 A3001 RMK A01 T01950179  RH  095%=      5-min Rain = 0
KAMH 261420Z 15012KT 20/18 A3002 RMK A01 T01960178  RH  094%=      5-min Rain = 0
KAMH 261425Z 15010KT 20/18 A3001 RMK A01 T01960179  RH  094%=      5-min Rain = 0
KAMH 261430Z 15011KT 20/18 A3002 RMK A01 T01970179  RH  094%=      5-min Rain = 0
KAMH 261435Z 15011KT 20/18 A3002 RMK A01 T01980180  RH  094%=      5-min Rain = 0
KAMH 261440Z 15011KT 20/18 A3002 RMK A01 T01990180  RH  094%=      5-min Rain = 0
KAMH 261445Z 15011KT 20/18 A3002 RMK A01 T01990180  RH  093%=      5-min Rain = 0
KAMH 261450Z 14011KT 20/18 A3002 RMK A01 T02000181  RH  093%=      5-min Rain = 0
KAMH 261455Z 15011KT 20/18 A3001 RMK A01 T02000181  RH  093%=      5-min Rain = 0
KAMH 261500Z 15011KT 20/18 A3002 RMK A01 T02010181  RH  093%=      5-min Rain = 0
KAMH 261505Z 15011KT 20/18 A3002 RMK A01 T02020181  RH  093%=      5-min Rain = 0
KAMH 261510Z 15011KT 20/18 A3001 RMK A01 T02030182  RH  093%=      5-min Rain = 0
KAMH 261515Z 15011G16KT 21/18 A3001 RMK A01 T02050183  RH  092%=      5-min Rain = 0
KAMH 261520Z 15011KT 21/18 A3001 RMK A01 T02050183  RH  092%=      5-min Rain = 0
KAMH 261525Z 15013KT 21/18 A3001 RMK A01 T02060183  RH  091%=      5-min Rain = 0
KAMH 261530Z 15012KT 21/18 A3001 RMK A01 T02070183  RH  091%=      5-min Rain = 0
KAMH 261535Z 15013G18KT 21/18 A3001 RMK A01 T02070182  RH  090%=      5-min Rain = 0
KAMH 261540Z 15012KT 21/18 A3001 RMK A01 T02080183  RH  090%=      5-min Rain = 0
KAMH 261545Z 15013G18KT 21/18 A3001 RMK A01 T02100183  RH  089%=      5-min Rain = 0
KAMH 261550Z 15014KT 21/18 A3001 RMK A01 T02090182  RH  089%=      5-min Rain = 0
KAMH 261555Z 16014KT 21/18 A3001 RMK A01 T02110181  RH  088%=      5-min Rain = 0
KAMH 261600Z 16014G19KT 21/18 A3001 RMK A01 T02130183  RH  088%=      5-min Rain = 0
KAMH 261605Z 16014G20KT 22/18 A3001 RMK A01 T02150182  RH  086%=      5-min Rain = 0
KAMH 261610Z 15014G19KT 22/18 A3001 RMK A01 T02170183  RH  085%=      5-min Rain = 0
KAMH 261615Z 15014KT 22/18 A3001 RMK A01 T02170183  RH  085%=      5-min Rain = 0
KAMH 261620Z 15013KT 22/18 A3001 RMK A01 T02170184  RH  086%=      5-min Rain = 0
KAMH 261625Z 15014KT 22/18 A3001 RMK A01 T02170184  RH  086%=      5-min Rain = 0
KAMH 261630Z 15012G17KT 22/18 A3001 RMK A01 T02160183  RH  086%=      5-min Rain = 0
KAMH 261635Z 16012G17KT 22/18 A3001 RMK A01 T02160183  RH  086%=      5-min Rain = 0
KAMH 261640Z 16013G18KT 22/18 A3001 RMK A01 T02180182  RH  085%=      5-min Rain = 0
KAMH 261645Z 16013KT 22/18 A30 RMK A01 T02190183  RH  084%=      5-min Rain = 0
KAMH 261650Z 17015KT 22/18 A30 RMK A01 T02210181  RH  083%=      5-min Rain = 0
KAMH 261655Z 16013KT 22/18 A30 RMK A01 T02210181  RH  082%=      5-min Rain = 0
KAMH 261700Z 16011KT 22/18 A3001 RMK A01 T02200182  RH  083%=      5-min Rain = 0
KAMH 261705Z 17011G16KT 22/18 A3001 RMK A01 T02180184  RH  086%=      5-min Rain = 0
KAMH 261710Z 18014KT 22/18 A3001 RMK A01 T02220180  RH  082%=      5-min Rain = 0
KAMH 261715Z 18014KT 22/18 A3001 RMK A01 T02230180  RH  081%=      5-min Rain = 0
KAMH 261720Z 17014KT 22/18 A30 RMK A01 T02240179  RH  080%=      5-min Rain = 0
KAMH 261725Z 17014G19KT 23/18 A30 RMK A01 T02250179  RH  079%=      5-min Rain = 0
KAMH 261730Z 18016KT 23/18 A30 RMK A01 T02260179  RH  079%=      5-min Rain = 0
KAMH 261735Z 17015KT 23/18 A30 RMK A01 T02250180  RH  080%=      5-min Rain = 0
KAMH 261740Z 17014KT 23/18 A30 RMK A01 T02280181  RH  079%=      5-min Rain = 0
KAMH 261745Z 17016KT 23/18 A2999 RMK A01 T02280179  RH  078%=      5-min Rain = 0
KAMH 261750Z 17012G17KT 23/18 A2999 RMK A01 T02290181  RH  078%=      5-min Rain = 0
KAMH 261755Z 16014KT 23/18 A2999 RMK A01 T02330182  RH  077%=      5-min Rain = 0
KAMH 261800Z 16016G21KT 23/18 A2999 RMK A01 T02340181  RH  076%=      5-min Rain = 0
KAMH 261805Z 16015KT 23/18 A2999 RMK A01 T02310178  RH  076%=      5-min Rain = 0
KAMH 261810Z 17015G20KT 23/18 A2999 RMK A01 T02280179  RH  078%=      5-min Rain = 0
KAMH 261815Z 17014KT 23/18 A30 RMK A01 T02260179  RH  079%=      5-min Rain = 0
KAMH 261820Z 18016G21KT 23/18 A3001 RMK A01 T02260179  RH  079%=      5-min Rain = 0
KAMH 261825Z 19016KT 23/18 A3002 RMK A01 T02260177  RH  078%=      5-min Rain = 0
KAMH 261830Z 19013G18KT 22/18 A3003 RMK A01 T02240178  RH  079%=      5-min Rain = 0
KAMH 261835Z 19015G22KT 22/18 A3003 RMK A01 T02230178  RH  080%=      5-min Rain = 0
KAMH 261840Z 18013KT 22/18 A3003 RMK A01 T02230179  RH  080%=      5-min Rain = 0
KAMH 261845Z 19012KT 22/18 A3003 RMK A01 T02230181  RH  081%=      5-min Rain = 0
KAMH 261850Z 19012KT 22/18 A3002 RMK A01 T02230181  RH  082%=      5-min Rain = 0
KAMH 261855Z 18009G14KT 22/18 A3001 RMK A01 T02220182  RH  082%=      5-min Rain = 0
KAMH 261900Z 19009KT 22/18 A3001 RMK A01 T02230183  RH  082%=      5-min Rain = 0
KAMH 261905Z 17008KT 22/18 A30 RMK A01 T02240183  RH  082%=      5-min Rain = 0
KAMH 261910Z 15008KT 23/18 A2999 RMK A01 T02250182  RH  081%=      5-min Rain = 0
KAMH 261915Z 14009KT 23/18 A2998 RMK A01 T02250181  RH  080%=      5-min Rain = 0
KAMH 261920Z 15012G18KT 23/18 A30 RMK A01 T02250181  RH  081%=      5-min Rain = 0
KAMH 261925Z 17014G20KT 22/18 A3002 RMK A01 T02240182  RH  081%=      5-min Rain = 0
KAMH 261930Z 18013KT 22/18 A3002 RMK A01 T02220183  RH  083%=      5-min Rain = 0
KAMH 261935Z 18010KT 22/18 A3001 RMK A01 T02180184  RH  085%=      5-min Rain = 0.01
KAMH 261940Z 17007KT 22/19 A2999 RMK A01 T02170185  RH  087%=      5-min Rain = 0
KAMH 261945Z 15008KT 22/19 A2998 RMK A01 T02170186  RH  087%=      5-min Rain = 0
KAMH 261950Z 15011KT 22/19 A2999 RMK A01 T02180188  RH  088%=      5-min Rain = 0
KAMH 261955Z 14010KT 22/19 A2998 RMK A01 T02190187  RH  086%=      5-min Rain = 0
KAMH 262000Z 13009G14KT 22/19 A2997 RMK A01 T02200188  RH  087%=      5-min Rain = 0
KAMH 262005Z 14011KT 22/19 A2998 RMK A01 T02200188  RH  087%=      5-min Rain = 0
KAMH 262010Z 14010KT 22/19 A2997 RMK A01 T02210187  RH  086%=      5-min Rain = 0
KAMH 262015Z 14011KT 22/19 A2997 RMK A01 T02230188  RH  085%=      5-min Rain = 0
KAMH 262020Z 15013G18KT 22/19 A2998 RMK A01 T02230187  RH  085%=      5-min Rain = 0
KAMH 262025Z 15012G17KT 22/19 A2998 RMK A01 T02240186  RH  083%=      5-min Rain = 0
KAMH 262030Z 15011KT 22/19 A2998 RMK A01 T02240186  RH  084%=      5-min Rain = 0
KAMH 262035Z 17005G11KT 23/19 A2995 RMK A01 T02250185  RH  082%=      5-min Rain = 0
KAMH 262040Z 15008G14KT 23/19 A2995 RMK A01 T02260186  RH  083%=      5-min Rain = 0
KAMH 262045Z 13013KT 23/19 A2995 RMK A01 T02250186  RH  083%=      5-min Rain = 0
KAMH 262050Z 13014KT 23/19 A2995 RMK A01 T02250185  RH  082%=      5-min Rain = 0
KAMH 262055Z 14013KT 23/19 A2995 RMK A01 T02250185  RH  083%=      5-min Rain = 0
KAMH 262100Z 13016KT 22/19 A2994 RMK A01 T02240185  RH  083%=      5-min Rain = 0
KAMH 262105Z 14018G23KT 22/18 A2995 RMK A01 T02220184  RH  084%=      5-min Rain = 0
KAMH 262110Z 14017G22KT 22/18 A2994 RMK A01 T02210184  RH  084%=      5-min Rain = 0
KAMH 262115Z 14015G22KT 22/18 A2994 RMK A01 T02200184  RH  084%=      5-min Rain = 0
KAMH 262120Z 14016G22KT 22/18 A2993 RMK A01 T02200184  RH  084%=      5-min Rain = 0
KAMH 262125Z 13016G21KT 22/19 A2991 RMK A01 T02210185  RH  084%=      5-min Rain = 0
KAMH 262130Z 13016G22KT 22/19 A2991 RMK A01 T02210186  RH  085%=      5-min Rain = 0
KAMH 262135Z 13017G24KT 22/19 A299 RMK A01 T02220186  RH  085%=      5-min Rain = 0
KAMH 262140Z 13019G24KT 22/19 A2991 RMK A01 T02200185  RH  085%=      5-min Rain = 0
KAMH 262145Z 13015G25KT 22/18 A2991 RMK A01 T02190184  RH  085%=      5-min Rain = 0
KAMH 262150Z 13023G33KT 22/18 A2989 RMK A01 T02180183  RH  085%=      5-min Rain = 0
KAMH 262155Z 12026G31KT 22/18 A2987 RMK A01 T02180183  RH  085%=      5-min Rain = 0
KAMH 262200Z 13022G29KT 22/18 A2987 RMK A01 T02190184  RH  085%=      5-min Rain = 0
KAMH 262205Z 13027G36KT 22/19 A2988 RMK A01 T02240186  RH  083%=      5-min Rain = 0
KAMH 262210Z 13025G33KT 23/19 A2988 RMK A01 T02280187  RH  082%=      5-min Rain = 0
KAMH 262215Z 13023G30KT 23/19 A2989 RMK A01 T02340189  RH  080%=      5-min Rain = 0
KAMH 262220Z 13021G29KT 23/19 A2988 RMK A01 T02340188  RH  080%=      5-min Rain = 0
KAMH 262225Z 14021G29KT 24/19 A299 RMK A01 T02350187  RH  079%=      5-min Rain = 0
KAMH 262230Z 15021G27KT 24/19 A299 RMK A01 T02350187  RH  079%=      5-min Rain = 0
KAMH 262235Z 15020G30KT 23/18 A299 RMK A01 T02330184  RH  078%=      5-min Rain = 0
KAMH 262240Z 15018G24KT 23/19 A2991 RMK A01 T02340186  RH  078%=      5-min Rain = 0
KAMH 262245Z 16024G31KT 24/18 A2992 RMK A01 T02360184  RH  077%=      5-min Rain = 0
KAMH 262250Z 16023G33KT 24/18 A2992 RMK A01 T02360183  RH  076%=      5-min Rain = 0
KAMH 262255Z 15026G33KT 24/18 A2991 RMK A01 T02390182  RH  075%=      5-min Rain = 0
KAMH 262300Z 15023G30KT 24/18 A2991 RMK A01 T02380183  RH  075%=      5-min Rain = 0
KAMH 262305Z 15024G30KT 24/18 A299 RMK A01 T02410183  RH  074%=      5-min Rain = 0
KAMH 262310Z 16021G27KT 24/18 A299 RMK A01 T02420183  RH  073%=      5-min Rain = 0
KAMH 262315Z 15021G28KT 24/18 A299 RMK A01 T02390182  RH  074%=      5-min Rain = 0
KAMH 262320Z 15019G28KT 24/18 A299 RMK A01 T02380182  RH  075%=      5-min Rain = 0
KAMH 262325Z 15021G30KT 24/18 A299 RMK A01 T02410182  RH  073%=      5-min Rain = 0
KAMH 262330Z 15020G26KT 24/18 A2989 RMK A01 T02440182  RH  072%=      5-min Rain = 0
KAMH 262335Z 15021G29KT 24/18 A2989 RMK A01 T02430182  RH  072%=      5-min Rain = 0
KAMH 262340Z 15020G26KT 24/18 A2988 RMK A01 T02360181  RH  075%=      5-min Rain = 0
KAMH 262345Z 15020G26KT 23/18 A2988 RMK A01 T02330182  RH  077%=      5-min Rain = 0
KAMH 262350Z 15021G27KT 24/18 A2988 RMK A01 T02390183  RH  075%=      5-min Rain = 0
KAMH 262355Z 15020G27KT 24/18 A2988 RMK A01 T02400182  RH  074%=      5-min Rain = 0
KAMH 270000Z 15021G27KT 24/18 A2987 RMK A01 T02390181  RH  074%=      5-min Rain = 0
KAMH 270005Z 14019G25KT 24/18 A2986 RMK A01 T02390183  RH  075%=      5-min Rain = 0
KAMH 270010Z 14021G26KT 24/18 A2986 RMK A01 T02380180  RH  074%=      5-min Rain = 0
KAMH 270015Z 14022G30KT 23/18 A2986 RMK A01 T02330179  RH  076%=      5-min Rain = 0
KAMH 270020Z 14022G29KT 23/18 A2985 RMK A01 T02290178  RH  077%=      5-min Rain = 0
KAMH 270025Z 14020G26KT 23/18 A2984 RMK A01 T02280178  RH  077%=      5-min Rain = 0
KAMH 270030Z 14018G28KT 23/18 A2984 RMK A01 T02260178  RH  079%=      5-min Rain = 0
KAMH 270035Z 15019G26KT 23/18 A2984 RMK A01 T02250178  RH  079%=      5-min Rain = 0
KAMH 270040Z 15017G22KT 22/18 A2984 RMK A01 T02240178  RH  079%=      5-min Rain = 0
KAMH 270045Z 15018G24KT 22/18 A2984 RMK A01 T02230178  RH  080%=      5-min Rain = 0
KAMH 270050Z 15020G27KT 22/18 A2983 RMK A01 T02230178  RH  080%=      5-min Rain = 0
KAMH 270055Z 15022G28KT 22/18 A2984 RMK A01 T02240177  RH  078%=      5-min Rain = 0
KAMH 270100Z 15021G29KT 22/18 A2985 RMK A01 T02240176  RH  078%=      5-min Rain = 0
KAMH 270105Z 15021G27KT 22/18 A2985 RMK A01 T02230176  RH  079%=      5-min Rain = 0
KAMH 270110Z 15019G25KT 22/18 A2985 RMK A01 T02220177  RH  079%=      5-min Rain = 0
KAMH 270115Z 15019G26KT 22/18 A2985 RMK A01 T02230177  RH  079%=      5-min Rain = 0
KAMH 270120Z 15018G24KT 22/18 A2985 RMK A01 T02220177  RH  080%=      5-min Rain = 0
KAMH 270125Z 15015G22KT 22/18 A2985 RMK A01 T02200178  RH  081%=      5-min Rain = 0
KAMH 270130Z 15015KT 22/18 A2985 RMK A01 T02190178  RH  082%=      5-min Rain = 0
KAMH 270135Z 15015G21KT 22/18 A2985 RMK A01 T02190177  RH  081%=      5-min Rain = 0
KAMH 270140Z 15013G20KT 22/18 A2986 RMK A01 T02180177  RH  082%=      5-min Rain = 0
KAMH 270145Z 14012KT 22/18 A2986 RMK A01 T02170177  RH  082%=      5-min Rain = 0
KAMH 270150Z 14011KT 22/18 A2986 RMK A01 T02160176  RH  082%=      5-min Rain = 0
KAMH 270155Z 14011G16KT 22/18 A2987 RMK A01 T02160176  RH  082%=      5-min Rain = 0
KAMH 270200Z 14012G17KT 22/18 A2987 RMK A01 T02170176  RH  082%=      5-min Rain = 0
KAMH 270205Z 14012KT 22/18 A2986 RMK A01 T02150176  RH  082%=      5-min Rain = 0
KAMH 270210Z 15013G19KT 21/18 A2986 RMK A01 T02130176  RH  083%=      5-min Rain = 0
KAMH 270215Z 15015G22KT 21/18 A2986 RMK A01 T02140176  RH  083%=      5-min Rain = 0
KAMH 270220Z 15017G22KT 21/18 A2986 RMK A01 T02140176  RH  083%=      5-min Rain = 0
KAMH 270225Z 15016G22KT 21/18 A2987 RMK A01 T02140176  RH  083%=      5-min Rain = 0
KAMH 270230Z 15017G22KT 21/18 A2987 RMK A01 T02140175  RH  083%=      5-min Rain = 0
KAMH 270235Z 15016G21KT 21/18 A2987 RMK A01 T02140175  RH  083%=      5-min Rain = 0
KAMH 270240Z 15016G23KT 21/18 A2986 RMK A01 T02140175  RH  083%=      5-min Rain = 0
KAMH 270245Z 15018G23KT 21/17 A2986 RMK A01 T02140174  RH  082%=      5-min Rain = 0
KAMH 270250Z 15017G24KT 21/17 A2986 RMK A01 T02120174  RH  083%=      5-min Rain = 0
KAMH 270255Z 15018G25KT 21/17 A2986 RMK A01 T02130174  RH  083%=      5-min Rain = 0
KAMH 270300Z 15018G24KT 21/17 A2986 RMK A01 T02120174  RH  083%=      5-min Rain = 0
KAMH 270305Z 16020G26KT 21/17 A2986 RMK A01 T02120174  RH  083%=      5-min Rain = 0
KAMH 270310Z 16021G29KT 21/17 A2986 RMK A01 T02120173  RH  083%=      5-min Rain = 0
KAMH 270315Z 16021G27KT 21/17 A2986 RMK A01 T02120173  RH  082%=      5-min Rain = 0
KAMH 270320Z 16021G29KT 21/17 A2986 RMK A01 T02120173  RH  082%=      5-min Rain = 0
KAMH 270325Z 16020G29KT 21/17 A2987 RMK A01 T02120172  RH  082%=      5-min Rain = 0
KAMH 270330Z 16019G26KT 21/17 A2987 RMK A01 T02110172  RH  083%=      5-min Rain = 0
KAMH 270335Z 16019G26KT 21/17 A2988 RMK A01 T02110172  RH  083%=      5-min Rain = 0
KAMH 270340Z 16018G23KT 21/17 A2988 RMK A01 T02100172  RH  083%=      5-min Rain = 0
KAMH 270345Z 16017G22KT 21/17 A2988 RMK A01 T02090171  RH  083%=      5-min Rain = 0
KAMH 270350Z 16019G24KT 21/17 A2989 RMK A01 T02090171  RH  083%=      5-min Rain = 0
KAMH 270355Z 16016G22KT 21/17 A2989 RMK A01 T02080171  RH  083%=      5-min Rain = 0
KAMH 270400Z 17014G21KT 21/17 A2989 RMK A01 T02070171  RH  084%=      5-min Rain = 0
KAMH 270405Z 17015G21KT 21/17 A2989 RMK A01 T02060170  RH  084%=      5-min Rain = 0
KAMH 270410Z 16015G21KT 21/17 A299 RMK A01 T02060170  RH  084%=      5-min Rain = 0
KAMH 270415Z 16015G20KT 21/17 A299 RMK A01 T02050170  RH  084%=      5-min Rain = 0
KAMH 270420Z 17014KT 21/17 A299 RMK A01 T02050170  RH  084%=      5-min Rain = 0
KAMH 270425Z 17013KT 20/17 A2991 RMK A01 T02040170  RH  085%=      5-min Rain = 0
KAMH 270430Z 17013KT 20/17 A2991 RMK A01 T02040169  RH  085%=      5-min Rain = 0
KAMH 270435Z 17013KT 20/17 A2991 RMK A01 T02030169  RH  085%=      5-min Rain = 0
KAMH 270440Z 18012G17KT 20/17 A2991 RMK A01 T02030169  RH  085%=      5-min Rain = 0
KAMH 270445Z 18012KT 20/17 A2991 RMK A01 T02030169  RH  085%=      5-min Rain = 0
KAMH 270450Z 18012KT 20/17 A2992 RMK A01 T02020169  RH  086%=      5-min Rain = 0
KAMH 270455Z 19011KT 20/17 A2992 RMK A01 T02020169  RH  085%=      5-min Rain = 0

Page generated in 0.0114 seconds.